createdAt,value
2019-05-25T00:00:25.511Z,100023.53
2019-05-25T00:01:30.632Z,100022.36
2019-05-25T00:02:35.484Z,100019.28
2019-05-25T00:03:40.052Z,100020.11
2019-05-25T00:04:44.890Z,100012.19
2019-05-25T00:05:49.166Z,100009.59
2019-05-25T00:06:54.141Z,100010.15
2019-05-25T00:07:58.306Z,100015.47
2019-05-25T00:09:03.106Z,100010.05
2019-05-25T00:10:07.574Z,100005.20
2019-05-25T00:11:12.565Z,100011.46
2019-05-25T00:12:16.741Z,100001.55
2019-05-25T00:13:21.772Z,100007.31
2019-05-25T00:14:25.969Z,100012.98
2019-05-25T00:15:30.953Z,100003.41
2019-05-25T00:16:35.178Z,100010.73
2019-05-25T00:17:40.080Z,100006.34
2019-05-25T00:18:44.248Z,100005.24
2019-05-25T00:19:49.013Z,100006.34
2019-05-25T00:20:53.925Z,100008.59
2019-05-25T00:21:58.809Z,100011.67
2019-05-25T00:23:03.058Z,100007.42
2019-05-25T00:24:12.250Z,100014.75
2019-05-25T00:25:13.821Z,100013.57
2019-05-25T00:26:18.578Z,100012.40
2019-05-25T00:27:22.768Z,100014.64
2019-05-25T00:28:27.847Z,100012.98
2019-05-25T00:29:32.091Z,100016.89
2019-05-25T00:30:36.912Z,100012.50
2019-05-25T00:31:41.086Z,100013.57
2019-05-25T00:32:47.239Z,100012.74
2019-05-25T00:33:53.079Z,100018.66
2019-05-25T00:34:58.973Z,100020.91
2019-05-25T00:36:03.703Z,100017.34
2019-05-25T00:37:08.683Z,100015.75
2019-05-25T00:38:12.858Z,100021.66
2019-05-25T00:39:17.744Z,100022.84
2019-05-25T00:40:21.917Z,100022.70
2019-05-25T00:41:26.756Z,100021.04
2019-05-25T00:42:30.998Z,100025.53
2019-05-25T00:43:35.757Z,100020.11
2019-05-25T00:44:40.005Z,100029.09
2019-05-25T00:45:44.801Z,100029.34
2019-05-25T00:46:50.245Z,100024.50
2019-05-25T00:47:55.041Z,100023.66
2019-05-25T00:49:01.552Z,100025.02
2019-05-25T00:50:09.366Z,100027.33
2019-05-25T00:51:13.543Z,100027.02
2019-05-25T00:52:18.405Z,100025.84
2019-05-25T00:53:22.650Z,100030.34
2019-05-25T00:54:28.427Z,100020.17
2019-05-25T00:55:33.005Z,100022.42
2019-05-25T00:56:37.924Z,100019.59
2019-05-25T00:57:42.100Z,100023.84
2019-05-25T00:58:48.003Z,100027.50
2019-05-25T00:59:52.388Z,100015.44
2019-05-25T01:00:57.279Z,100022.25
2019-05-25T01:02:01.553Z,100014.19
2019-05-25T01:03:06.378Z,100022.45
2019-05-25T01:04:10.641Z,100018.45
2019-05-25T01:05:15.447Z,100019.62
2019-05-25T01:06:19.849Z,100023.14
2019-05-25T01:07:24.644Z,100020.89
2019-05-25T01:08:28.877Z,100020.55
2019-05-25T01:09:33.865Z,100022.55
2019-05-25T01:10:38.188Z,100022.07
2019-05-25T01:11:43.003Z,100018.41
2019-05-25T01:12:47.245Z,100021.66
2019-05-25T01:13:52.089Z,100018.82
2019-05-25T01:14:56.348Z,100023.66
2019-05-25T01:16:01.161Z,100023.41
2019-05-25T01:17:05.483Z,100028.25
2019-05-25T01:18:10.437Z,100028.01
2019-05-25T01:19:14.635Z,100025.77
2019-05-25T01:20:19.466Z,100024.94
2019-05-25T01:21:23.715Z,100020.44
2019-05-25T01:22:28.478Z,100021.37
2019-05-25T01:23:32.846Z,100021.37
2019-05-25T01:24:44.406Z,100020.78
2019-05-25T01:25:43.505Z,100026.55
2019-05-25T01:26:48.561Z,100027.45
2019-05-25T01:27:53.806Z,100023.64
2019-05-25T01:28:59.746Z,100021.90
2019-05-25T01:30:07.822Z,100021.90
2019-05-25T01:31:12.942Z,100018.48
2019-05-25T01:32:17.332Z,100021.90
2019-05-25T01:33:22.133Z,100016.23
2019-05-25T01:34:26.425Z,100019.96
2019-05-25T01:35:31.352Z,100019.23
2019-05-25T01:36:36.013Z,100015.81
2019-05-25T01:37:40.772Z,100022.65
2019-05-25T01:38:44.950Z,100026.31
2019-05-25T01:39:49.781Z,100021.82
2019-05-25T01:40:54.334Z,100023.58
2019-05-25T01:41:59.099Z,100017.42
2019-05-25T01:43:03.479Z,100023.44
2019-05-25T01:44:08.250Z,100021.52
2019-05-25T01:45:12.477Z,100022.36
2019-05-25T01:46:17.261Z,100024.60
2019-05-25T01:47:21.428Z,100018.70
2019-05-25T01:48:28.210Z,100021.00
2019-05-25T01:49:32.458Z,100027.79
2019-05-25T01:50:37.302Z,100033.45
2019-05-25T01:51:41.447Z,100028.96
2019-05-25T01:52:46.383Z,100030.13
2019-05-25T01:53:50.624Z,100036.63
2019-05-25T01:55:00.018Z,100037.80
2019-05-25T01:56:01.597Z,100035.27
2019-05-25T01:57:06.356Z,100034.78
2019-05-25T01:58:10.530Z,100032.05
2019-05-25T01:59:15.290Z,100037.13
2019-05-25T02:00:21.686Z,100035.16
2019-05-25T02:01:26.517Z,100032.64
2019-05-25T02:02:30.910Z,100032.64
2019-05-25T02:03:35.616Z,100029.80
2019-05-25T02:04:39.828Z,100036.48
2019-05-25T02:05:45.859Z,100036.48
2019-05-25T02:06:50.069Z,100033.41
2019-05-25T02:07:55.013Z,100030.58
2019-05-25T02:08:59.267Z,100036.48
2019-05-25T02:10:08.597Z,100031.01
2019-05-25T02:11:12.881Z,100037.07
2019-05-25T02:12:17.913Z,100035.41
2019-05-25T02:13:22.203Z,100035.41
2019-05-25T02:14:27.002Z,100039.91
2019-05-25T02:15:31.178Z,100041.31
2019-05-25T02:16:36.207Z,100041.31
2019-05-25T02:17:40.661Z,100041.07
2019-05-25T02:18:45.822Z,100038.48
2019-05-25T02:19:50.137Z,100043.66
2019-05-25T02:20:55.022Z,100039.41
2019-05-25T02:21:59.200Z,100043.99
2019-05-25T02:23:04.062Z,100039.84
2019-05-25T02:24:09.945Z,100043.00
2019-05-25T02:25:18.045Z,100043.06
2019-05-25T02:26:20.763Z,100043.93
2019-05-25T02:27:25.534Z,100038.57
2019-05-25T02:28:29.822Z,100040.42
2019-05-25T02:29:34.575Z,100035.19
2019-05-25T02:30:38.757Z,100037.43
2019-05-25T02:31:43.626Z,100038.02
2019-05-25T02:32:47.898Z,100039.67
2019-05-25T02:33:53.792Z,100037.77
2019-05-25T02:34:57.939Z,100042.01
2019-05-25T02:36:02.934Z,100040.84
2019-05-25T02:37:07.573Z,100032.36
2019-05-25T02:38:12.335Z,100032.60
2019-05-25T02:39:17.667Z,100032.60
2019-05-25T02:40:22.503Z,100034.94
2019-05-25T02:41:26.761Z,100040.84
2019-05-25T02:42:33.153Z,100036.10
2019-05-25T02:43:37.470Z,100033.03
2019-05-25T02:44:42.389Z,100038.99
2019-05-25T02:45:46.694Z,100038.80
2019-05-25T02:46:51.521Z,100041.91
2019-05-25T02:47:56.593Z,100042.74
2019-05-25T02:49:01.501Z,100037.48
2019-05-25T02:50:07.110Z,100037.72
2019-05-25T02:51:12.032Z,100044.46
2019-05-25T02:52:17.461Z,100042.46
2019-05-25T02:53:22.223Z,100046.46
2019-05-25T02:54:26.426Z,100053.53
2019-05-25T02:55:34.783Z,100054.78
2019-05-25T02:56:37.258Z,100047.37
2019-05-25T02:57:42.282Z,100051.38
2019-05-25T02:58:46.567Z,100055.95
2019-05-25T02:59:52.717Z,100058.78
2019-05-25T03:00:56.829Z,100054.78
2019-05-25T03:02:01.768Z,100054.30
2019-05-25T03:03:06.090Z,100055.52
2019-05-25T03:04:10.850Z,100059.17
2019-05-25T03:05:15.390Z,100055.27
2019-05-25T03:06:21.428Z,100060.43
2019-05-25T03:07:25.680Z,100056.19
2019-05-25T03:08:30.466Z,100064.09
2019-05-25T03:09:34.642Z,100057.10
2019-05-25T03:10:39.510Z,100060.27
2019-05-25T03:11:43.685Z,100062.52
2019-05-25T03:12:50.174Z,100056.36
2019-05-25T03:13:54.397Z,100055.58
2019-05-25T03:14:59.142Z,100056.11
2019-05-25T03:16:04.399Z,100057.86
2019-05-25T03:17:09.160Z,100065.81
2019-05-25T03:18:13.337Z,100066.89
2019-05-25T03:19:18.133Z,100062.98
2019-05-25T03:20:22.748Z,100062.65
2019-05-25T03:21:27.735Z,100067.76
2019-05-25T03:22:31.988Z,100064.93
2019-05-25T03:23:36.838Z,100062.34
2019-05-25T03:24:41.001Z,100063.77
2019-05-25T03:25:49.558Z,100061.16
2019-05-25T03:26:51.869Z,100065.66
2019-05-25T03:27:56.665Z,100063.66
2019-05-25T03:29:00.944Z,100068.14
2019-05-25T03:30:09.991Z,100063.91
2019-05-25T03:31:14.138Z,100066.15
2019-05-25T03:32:20.007Z,100059.91
2019-05-25T03:33:24.540Z,100069.81
2019-05-25T03:34:29.358Z,100064.82
2019-05-25T03:35:33.846Z,100064.82
2019-05-25T03:36:38.606Z,100065.98
2019-05-25T03:37:43.131Z,100070.31
2019-05-25T03:38:48.023Z,100068.06
2019-05-25T03:39:52.196Z,100071.48
2019-05-25T03:40:58.676Z,100075.97
2019-05-25T03:42:03.457Z,100075.97
2019-05-25T03:43:08.216Z,100064.88
2019-05-25T03:44:12.622Z,100078.88
2019-05-25T03:45:17.451Z,100077.47
2019-05-25T03:46:21.588Z,100081.43
2019-05-25T03:47:26.425Z,100078.94
2019-05-25T03:48:30.627Z,100076.10
2019-05-25T03:49:35.694Z,100078.77
2019-05-25T03:50:39.979Z,100081.76
2019-05-25T03:51:44.737Z,100078.44
2019-05-25T03:52:49.005Z,100086.38
2019-05-25T03:53:53.765Z,100089.46
2019-05-25T03:54:57.960Z,100078.73
2019-05-25T03:56:05.658Z,100079.90
2019-05-25T03:57:08.678Z,100088.33
2019-05-25T03:58:13.791Z,100078.16
2019-05-25T03:59:18.139Z,100087.87
2019-05-25T04:00:37.191Z,100085.05
2019-05-25T04:01:41.568Z,100084.22
2019-05-25T04:02:46.430Z,100080.89
2019-05-25T04:03:50.845Z,100084.88
2019-05-25T04:04:55.605Z,100085.22
2019-05-25T04:05:59.801Z,100086.05
2019-05-25T04:07:04.713Z,100075.32
2019-05-25T04:08:08.895Z,100085.80
2019-05-25T04:09:14.107Z,100083.35
2019-05-25T04:10:18.668Z,100088.13
2019-05-25T04:11:23.498Z,100085.59
2019-05-25T04:12:27.693Z,100084.19
2019-05-25T04:13:32.511Z,100084.52
2019-05-25T04:14:36.649Z,100084.02
2019-05-25T04:15:41.410Z,100088.00
2019-05-25T04:16:45.631Z,100083.77
2019-05-25T04:17:50.408Z,100080.44
2019-05-25T04:18:54.651Z,100078.52
2019-05-25T04:19:59.408Z,100078.52
2019-05-25T04:21:04.334Z,100086.75
2019-05-25T04:22:09.172Z,100084.17
2019-05-25T04:23:13.337Z,100084.50
2019-05-25T04:24:18.242Z,100086.55
2019-05-25T04:25:22.414Z,100086.62
2019-05-25T04:26:27.724Z,100087.54
2019-05-25T04:27:32.168Z,100086.38
2019-05-25T04:28:36.990Z,100088.63
2019-05-25T04:29:41.417Z,100084.72
2019-05-25T04:30:46.281Z,100092.03
2019-05-25T04:31:50.453Z,100087.54
2019-05-25T04:32:55.441Z,100092.03
2019-05-25T04:33:59.617Z,100089.78
2019-05-25T04:35:06.759Z,100094.02
2019-05-25T04:36:11.888Z,100088.37
2019-05-25T04:37:16.693Z,100084.72
2019-05-25T04:38:20.980Z,100091.78
2019-05-25T04:39:25.842Z,100087.28
2019-05-25T04:40:30.022Z,100088.70
2019-05-25T04:41:34.906Z,100092.11
2019-05-25T04:42:39.238Z,100089.36
2019-05-25T04:43:44.047Z,100093.84
2019-05-25T04:44:48.292Z,100095.02
2019-05-25T04:45:53.045Z,100095.34
2019-05-25T04:46:57.284Z,100098.75
2019-05-25T04:48:02.113Z,100105.86
2019-05-25T04:49:06.393Z,100099.34
2019-05-25T04:50:11.665Z,100095.69
2019-05-25T04:51:15.932Z,100100.75
2019-05-25T04:52:20.859Z,100102.17
2019-05-25T04:53:25.133Z,100107.27
2019-05-25T04:54:29.893Z,100103.86
2019-05-25T04:55:34.848Z,100108.10
2019-05-25T04:56:40.308Z,100102.17
2019-05-25T04:57:44.542Z,100107.82
2019-05-25T04:58:49.478Z,100108.48
2019-05-25T04:59:53.663Z,100106.56
2019-05-25T05:00:58.756Z,100108.55
2019-05-25T05:02:05.278Z,100107.72
2019-05-25T05:03:10.135Z,100099.07
2019-05-25T05:04:14.322Z,100104.14
2019-05-25T05:05:19.071Z,100103.89
2019-05-25T05:06:23.264Z,100112.08
2019-05-25T05:07:28.021Z,100113.89
2019-05-25T05:08:35.491Z,100109.16
2019-05-25T05:09:39.061Z,100106.00
2019-05-25T05:10:43.739Z,100112.48
2019-05-25T05:11:48.516Z,100111.91
2019-05-25T05:12:52.685Z,100111.98
2019-05-25T05:13:57.441Z,100112.48
2019-05-25T05:15:01.706Z,100111.32
2019-05-25T05:16:06.526Z,100107.09
2019-05-25T05:17:10.796Z,100114.40
2019-05-25T05:18:15.569Z,100113.56
2019-05-25T05:19:19.750Z,100112.98
2019-05-25T05:20:24.763Z,100112.41
2019-05-25T05:21:29.200Z,100106.42
2019-05-25T05:22:33.961Z,100113.77
2019-05-25T05:23:38.130Z,100116.85
2019-05-25T05:24:42.960Z,100112.28
2019-05-25T05:25:47.225Z,100116.45
2019-05-25T05:26:55.949Z,100116.45
2019-05-25T05:27:59.024Z,100113.12
2019-05-25T05:29:03.851Z,100114.91
2019-05-25T05:30:08.846Z,100114.61
2019-05-25T05:31:23.308Z,100118.77
2019-05-25T05:32:27.614Z,100119.27
2019-05-25T05:33:26.817Z,100121.77
2019-05-25T05:34:31.072Z,100126.52
2019-05-25T05:35:38.897Z,100117.45
2019-05-25T05:36:41.785Z,100130.70
2019-05-25T05:37:46.597Z,100127.00
2019-05-25T05:38:50.925Z,100135.16
2019-05-25T05:39:55.740Z,100129.83
2019-05-25T05:41:00.193Z,100127.76
2019-05-25T05:42:05.224Z,100131.34
2019-05-25T05:43:10.009Z,100126.84
2019-05-25T05:44:14.762Z,100135.50
2019-05-25T05:45:18.997Z,100131.19
2019-05-25T05:46:23.756Z,100135.70
2019-05-25T05:47:28.203Z,100135.37
2019-05-25T05:48:33.055Z,100139.28
2019-05-25T05:49:37.311Z,100139.54
2019-05-25T05:50:42.540Z,100136.38
2019-05-25T05:51:50.915Z,100136.30
2019-05-25T05:52:55.797Z,100135.64
2019-05-25T05:53:59.963Z,100139.59
2019-05-25T05:55:08.435Z,100135.27
2019-05-25T05:56:12.604Z,100132.94
2019-05-25T05:57:17.365Z,100145.75
2019-05-25T05:58:21.668Z,100150.53
2019-05-25T05:59:28.121Z,100143.62
2019-05-25T06:00:32.517Z,100145.63
2019-05-25T06:01:37.276Z,100150.88
2019-05-25T06:02:41.684Z,100148.21
2019-05-25T06:03:46.654Z,100148.41
2019-05-25T06:04:50.897Z,100147.50
2019-05-25T06:05:55.818Z,100145.75
2019-05-25T06:06:59.998Z,100152.99
2019-05-25T06:08:05.435Z,100152.33
2019-05-25T06:09:09.650Z,100156.77
2019-05-25T06:10:14.382Z,100155.60
2019-05-25T06:11:18.592Z,100158.52
2019-05-25T06:12:23.341Z,100156.77
2019-05-25T06:13:27.609Z,100151.03
2019-05-25T06:14:32.486Z,100158.94
2019-05-25T06:15:36.737Z,100158.84
2019-05-25T06:16:41.764Z,100164.50
2019-05-25T06:17:46.206Z,100162.18
2019-05-25T06:18:50.964Z,100163.84
2019-05-25T06:19:55.290Z,100165.50
2019-05-25T06:21:00.067Z,100166.37
2019-05-25T06:22:04.222Z,100163.01
2019-05-25T06:23:12.323Z,100167.78
2019-05-25T06:24:14.876Z,100165.78
2019-05-25T06:25:19.692Z,100167.78
2019-05-25T06:26:23.916Z,100170.03
2019-05-25T06:27:28.799Z,100166.62
2019-05-25T06:28:32.985Z,100168.03
2019-05-25T06:29:37.842Z,100169.95
2019-05-25T06:30:42.193Z,100166.03
2019-05-25T06:31:48.246Z,100168.03
2019-05-25T06:32:52.461Z,100169.70
2019-05-25T06:33:57.353Z,100168.87
2019-05-25T06:35:01.536Z,100171.69
2019-05-25T06:36:06.313Z,100172.58
2019-05-25T06:37:11.874Z,100173.44
2019-05-25T06:38:16.849Z,100175.24
2019-05-25T06:39:21.022Z,100177.48
2019-05-25T06:40:25.860Z,100177.48
2019-05-25T06:41:30.035Z,100180.31
2019-05-25T06:42:34.870Z,100173.83
2019-05-25T06:43:39.096Z,100183.39
2019-05-25T06:44:44.269Z,100183.64
2019-05-25T06:45:48.469Z,100179.16
2019-05-25T06:46:53.210Z,100179.98
2019-05-25T06:47:57.586Z,100190.97
2019-05-25T06:49:02.474Z,100189.84
2019-05-25T06:50:07.416Z,100193.25
2019-05-25T06:51:13.813Z,100190.34
2019-05-25T06:52:18.061Z,100190.59
2019-05-25T06:53:22.857Z,100194.16
2019-05-25T06:54:27.092Z,100190.95
2019-05-25T06:55:31.949Z,100193.72
2019-05-25T06:56:36.229Z,100192.73
2019-05-25T06:57:43.573Z,100186.57
2019-05-25T06:58:46.942Z,100192.31
2019-05-25T06:59:51.696Z,100190.23
2019-05-25T07:00:55.881Z,100187.01
2019-05-25T07:02:01.436Z,100190.84
2019-05-25T07:03:05.866Z,100192.16
2019-05-25T07:04:11.661Z,100189.28
2019-05-25T07:05:15.864Z,100190.61
2019-05-25T07:06:20.622Z,100187.78
2019-05-25T07:07:24.906Z,100194.77
2019-05-25T07:08:29.783Z,100194.84
2019-05-25T07:09:34.077Z,100191.12
2019-05-25T07:10:38.952Z,100190.78
2019-05-25T07:11:43.161Z,100189.03
2019-05-25T07:12:48.257Z,100185.28
2019-05-25T07:13:52.429Z,100191.20
2019-05-25T07:14:57.254Z,100191.36
2019-05-25T07:16:01.552Z,100191.30
2019-05-25T07:17:06.263Z,100189.80
2019-05-25T07:18:10.513Z,100189.21
2019-05-25T07:19:15.692Z,100194.11
2019-05-25T07:20:19.878Z,100191.71
2019-05-25T07:21:24.664Z,100198.86
2019-05-25T07:22:28.828Z,100187.69
2019-05-25T07:23:34.552Z,100200.56
2019-05-25T07:24:38.896Z,100201.55
2019-05-25T07:25:43.768Z,100200.63
2019-05-25T07:26:47.996Z,100200.56
2019-05-25T07:27:59.822Z,100198.96
2019-05-25T07:28:58.695Z,100198.53
2019-05-25T07:30:03.541Z,100203.11
2019-05-25T07:31:07.761Z,100204.93
2019-05-25T07:32:12.516Z,100211.27
2019-05-25T07:33:16.894Z,100210.59
2019-05-25T07:34:23.291Z,100212.99
2019-05-25T07:35:27.473Z,100215.00
2019-05-25T07:36:32.337Z,100207.81
2019-05-25T07:37:36.581Z,100218.50
2019-05-25T07:38:41.406Z,100216.41
2019-05-25T07:39:46.789Z,100213.62
2019-05-25T07:40:51.789Z,100212.97
2019-05-25T07:41:55.992Z,100205.11
2019-05-25T07:43:00.822Z,100216.92
2019-05-25T07:44:05.008Z,100215.90
2019-05-25T07:45:09.862Z,100214.06
2019-05-25T07:46:17.121Z,100196.31
2019-05-25T07:47:21.691Z,100215.40
2019-05-25T07:48:25.921Z,100212.84
2019-05-25T07:49:30.704Z,100214.09
2019-05-25T07:50:34.852Z,100208.80
2019-05-25T07:51:39.351Z,100213.69
2019-05-25T07:52:43.566Z,100205.59
2019-05-25T07:53:48.912Z,100206.31
2019-05-25T07:54:53.108Z,100210.47
2019-05-25T07:55:58.933Z,100207.20
2019-05-25T07:57:03.106Z,100196.52
2019-05-25T07:58:17.322Z,100211.28
2019-05-25T07:59:14.913Z,100209.80
2019-05-25T08:00:20.368Z,100208.41
2019-05-25T08:01:24.546Z,100211.62
2019-05-25T08:02:29.309Z,100209.42
2019-05-25T08:03:33.531Z,100212.43
2019-05-25T08:04:38.286Z,100214.33
2019-05-25T08:05:42.551Z,100214.84
2019-05-25T08:06:47.409Z,100215.81
2019-05-25T08:07:51.581Z,100216.30
2019-05-25T08:08:56.499Z,100209.67
2019-05-25T08:10:00.754Z,100207.47
2019-05-25T08:11:05.516Z,100212.11
2019-05-25T08:12:09.814Z,100216.15
2019-05-25T08:13:14.573Z,100214.30
2019-05-25T08:14:18.943Z,100216.91
2019-05-25T08:15:23.741Z,100215.38
2019-05-25T08:16:27.941Z,100222.64
2019-05-25T08:17:32.940Z,100225.97
2019-05-25T08:18:37.136Z,100221.72
2019-05-25T08:19:41.963Z,100219.27
2019-05-25T08:20:47.266Z,100223.19
2019-05-25T08:21:52.388Z,100231.25
2019-05-25T08:22:56.566Z,100231.61
2019-05-25T08:24:01.516Z,100226.32
2019-05-25T08:25:08.435Z,100223.95
2019-05-25T08:26:13.218Z,100231.34
2019-05-25T08:27:17.457Z,100232.56
2019-05-25T08:28:32.219Z,100234.70
2019-05-25T08:29:28.195Z,100231.38
2019-05-25T08:30:33.056Z,100231.62
2019-05-25T08:31:37.229Z,100231.38
2019-05-25T08:32:42.074Z,100237.70
2019-05-25T08:33:46.402Z,100222.41
2019-05-25T08:34:51.489Z,100231.92
2019-05-25T08:35:55.666Z,100232.88
2019-05-25T08:37:00.418Z,100235.95
2019-05-25T08:38:04.730Z,100232.64
2019-05-25T08:39:09.499Z,100237.61
2019-05-25T08:40:13.868Z,100227.66
2019-05-25T08:41:18.625Z,100234.68
2019-05-25T08:42:22.852Z,100230.41
2019-05-25T08:43:27.880Z,100229.08
2019-05-25T08:44:32.100Z,100224.48
2019-05-25T08:45:36.858Z,100233.02
2019-05-25T08:46:41.080Z,100226.02
2019-05-25T08:47:45.849Z,100232.90
2019-05-25T08:48:50.255Z,100232.66
2019-05-25T08:49:55.049Z,100226.76
2019-05-25T08:50:59.793Z,100232.33
2019-05-25T08:52:05.782Z,100231.62
2019-05-25T08:53:10.104Z,100233.98
2019-05-25T08:54:14.957Z,100236.59
2019-05-25T08:55:20.316Z,100232.68
2019-05-25T08:56:25.075Z,100232.80
2019-05-25T08:57:29.336Z,100233.89
2019-05-25T08:58:47.501Z,100224.02
2019-05-25T08:59:39.997Z,100226.80
2019-05-25T09:00:45.092Z,100233.43
2019-05-25T09:01:50.037Z,100229.90
2019-05-25T09:02:55.145Z,100233.20
2019-05-25T09:03:59.363Z,100232.03
2019-05-25T09:05:08.321Z,100236.88
2019-05-25T09:06:12.684Z,100231.05
2019-05-25T09:07:17.440Z,100233.79
2019-05-25T09:08:21.907Z,100241.16
2019-05-25T09:09:26.666Z,100233.42
2019-05-25T09:10:30.926Z,100235.81
2019-05-25T09:11:35.685Z,100233.66
2019-05-25T09:12:39.932Z,100239.33
2019-05-25T09:13:44.708Z,100239.13
2019-05-25T09:14:48.957Z,100238.28
2019-05-25T09:15:53.717Z,100238.88
2019-05-25T09:16:57.887Z,100244.68
2019-05-25T09:18:02.653Z,100247.03
2019-05-25T09:19:06.950Z,100243.45
2019-05-25T09:20:11.980Z,100245.23
2019-05-25T09:21:16.434Z,100243.35
2019-05-25T09:22:21.184Z,100247.36
2019-05-25T09:23:25.901Z,100237.61
2019-05-25T09:24:30.834Z,100238.81
2019-05-25T09:25:35.977Z,100234.39
2019-05-25T09:26:40.765Z,100242.81
2019-05-25T09:27:44.961Z,100235.32
2019-05-25T09:29:03.389Z,100240.09
2019-05-25T09:29:55.702Z,100237.34
2019-05-25T09:31:00.571Z,100233.66
2019-05-25T09:32:06.993Z,100246.39
2019-05-25T09:33:11.230Z,100245.20
2019-05-25T09:34:15.689Z,100237.11
2019-05-25T09:35:20.563Z,100238.40
2019-05-25T09:36:25.534Z,100242.08
2019-05-25T09:37:30.293Z,100245.16
2019-05-25T09:38:34.550Z,100239.09
2019-05-25T09:39:39.345Z,100236.96
2019-05-25T09:40:43.494Z,100239.23
2019-05-25T09:41:48.421Z,100236.23
2019-05-25T09:42:52.613Z,100238.03
2019-05-25T09:43:57.574Z,100241.11
2019-05-25T09:45:01.934Z,100236.47
2019-05-25T09:46:06.793Z,100238.39
2019-05-25T09:47:11.287Z,100237.53
2019-05-25T09:48:16.074Z,100233.25
2019-05-25T09:49:20.383Z,100236.36
2019-05-25T09:50:25.144Z,100231.73
2019-05-25T09:51:29.318Z,100226.13
2019-05-25T09:52:34.138Z,100232.79
2019-05-25T09:53:38.321Z,100224.00
2019-05-25T09:54:43.179Z,100224.73
2019-05-25T09:55:47.376Z,100222.48
2019-05-25T09:56:52.340Z,100228.05
2019-05-25T09:57:56.666Z,100225.89
2019-05-25T09:59:01.663Z,100228.04
2019-05-25T10:00:07.920Z,100225.28
2019-05-25T10:01:12.778Z,100229.66
2019-05-25T10:02:17.070Z,100232.27
2019-05-25T10:03:21.989Z,100232.02
2019-05-25T10:04:26.234Z,100232.02
2019-05-25T10:05:30.993Z,100232.34
2019-05-25T10:06:35.249Z,100231.28
2019-05-25T10:07:40.636Z,100225.47
2019-05-25T10:08:44.867Z,100224.09
2019-05-25T10:09:49.787Z,100224.91
2019-05-25T10:10:53.966Z,100218.02
2019-05-25T10:11:58.822Z,100221.00
2019-05-25T10:13:03.041Z,100223.12
2019-05-25T10:14:07.812Z,100223.21
2019-05-25T10:15:11.989Z,100223.11
2019-05-25T10:16:16.872Z,100224.27
2019-05-25T10:17:22.662Z,100224.27
2019-05-25T10:18:27.655Z,100224.96
2019-05-25T10:19:31.988Z,100220.63
2019-05-25T10:20:36.825Z,100233.09
2019-05-25T10:21:41.224Z,100225.21
2019-05-25T10:22:46.013Z,100221.24
2019-05-25T10:23:50.258Z,100227.76
2019-05-25T10:24:55.383Z,100220.70
2019-05-25T10:25:59.553Z,100220.16
2019-05-25T10:27:05.289Z,100220.16
2019-05-25T10:28:09.462Z,100223.33
2019-05-25T10:29:14.300Z,100208.83
2019-05-25T10:30:17.982Z,100208.83
2019-05-25T10:31:22.501Z,100217.02
2019-05-25T10:32:27.019Z,100217.02
2019-05-25T10:33:31.954Z,100211.19
2019-05-25T10:34:36.583Z,100211.77
2019-05-25T10:35:41.224Z,100207.56
2019-05-25T10:36:45.680Z,100207.08
2019-05-25T10:37:50.338Z,100207.08
2019-05-25T10:38:54.720Z,100204.89
2019-05-25T10:39:59.302Z,100206.63
2019-05-25T10:41:03.788Z,100199.38
2019-05-25T10:42:08.339Z,100204.56
2019-05-25T10:43:12.781Z,100198.09
2019-05-25T10:44:17.406Z,100194.49
2019-05-25T10:45:21.783Z,100193.77
2019-05-25T10:46:26.510Z,100190.61
2019-05-25T10:47:30.913Z,100199.37
2019-05-25T10:48:35.597Z,100195.38
2019-05-25T10:49:40.588Z,100195.68
2019-05-25T10:50:45.218Z,100198.27
2019-05-25T10:51:49.687Z,100191.29
2019-05-25T10:52:54.244Z,100186.90
2019-05-25T10:53:58.881Z,100190.31
2019-05-25T10:55:03.955Z,100188.00
2019-05-25T10:56:08.329Z,100198.23
2019-05-25T10:57:13.441Z,100192.05
2019-05-25T10:58:18.014Z,100192.38
2019-05-25T10:59:22.554Z,100181.22
2019-05-25T11:00:27.060Z,100187.39
2019-05-25T11:01:31.666Z,100186.19
2019-05-25T11:02:36.135Z,100184.70
2019-05-25T11:03:40.821Z,100189.87
2019-05-25T11:04:45.276Z,100183.17
2019-05-25T11:05:49.817Z,100175.95
2019-05-25T11:06:54.997Z,100181.52
2019-05-25T11:07:59.863Z,100177.67
2019-05-25T11:09:06.980Z,100181.97
2019-05-25T11:10:11.673Z,100176.18
2019-05-25T11:11:16.038Z,100175.06
2019-05-25T11:12:20.728Z,100178.81
2019-05-25T11:13:25.126Z,100168.04
2019-05-25T11:14:29.691Z,100179.70
2019-05-25T11:15:34.095Z,100168.04
2019-05-25T11:16:38.683Z,100183.39
2019-05-25T11:17:43.127Z,100180.46
2019-05-25T11:18:47.759Z,100172.80
2019-05-25T11:19:52.425Z,100158.16
2019-05-25T11:20:57.036Z,100163.66
2019-05-25T11:22:01.477Z,100165.09
2019-05-25T11:23:06.102Z,100164.80
2019-05-25T11:24:10.549Z,100161.94
2019-05-25T11:25:15.104Z,100158.74
2019-05-25T11:26:19.541Z,100161.06
2019-05-25T11:27:24.117Z,100151.48
2019-05-25T11:28:28.487Z,100153.52
2019-05-25T11:29:33.132Z,100153.13
2019-05-25T11:30:37.519Z,100150.13
2019-05-25T11:31:42.099Z,100151.02
2019-05-25T11:32:46.510Z,100152.28
2019-05-25T11:33:51.093Z,100142.86
2019-05-25T11:34:55.719Z,100147.81
2019-05-25T11:36:00.332Z,100143.38
2019-05-25T11:37:04.965Z,100148.34
2019-05-25T11:38:09.535Z,100148.34
2019-05-25T11:39:13.884Z,100148.34
2019-05-25T11:40:18.593Z,100148.13
2019-05-25T11:41:22.997Z,100150.77
2019-05-25T11:42:27.585Z,100159.22
2019-05-25T11:43:32.094Z,100156.52
2019-05-25T11:44:37.681Z,100155.91
2019-05-25T11:45:45.250Z,100153.98
2019-05-25T11:46:48.393Z,100159.84
2019-05-25T11:47:52.898Z,100145.75
2019-05-25T11:48:57.524Z,100151.26
2019-05-25T11:50:01.986Z,100152.36
2019-05-25T11:51:06.860Z,100152.87
2019-05-25T11:52:11.304Z,100153.86
2019-05-25T11:53:16.028Z,100151.83
2019-05-25T11:54:20.397Z,100148.20
2019-05-25T11:55:25.008Z,100149.41
2019-05-25T11:56:29.383Z,100151.66
2019-05-25T11:57:34.013Z,100142.55
2019-05-25T11:58:46.896Z,100151.20
2019-05-25T11:59:44.660Z,100150.05
2019-05-25T12:00:51.689Z,100143.44
2019-05-25T12:01:55.545Z,100143.44
2019-05-25T12:02:59.916Z,100150.59
2019-05-25T12:04:04.683Z,100150.59
2019-05-25T12:05:09.123Z,100158.20
2019-05-25T12:06:13.755Z,100145.53
2019-05-25T12:07:18.193Z,100141.63
2019-05-25T12:08:22.837Z,100146.30
2019-05-25T12:09:27.564Z,100146.74
2019-05-25T12:10:32.216Z,100144.48
2019-05-25T12:11:37.677Z,100148.84
2019-05-25T12:12:42.312Z,100142.14
2019-05-25T12:13:46.691Z,100142.37
2019-05-25T12:14:51.883Z,100143.63
2019-05-25T12:15:57.314Z,100142.03
2019-05-25T12:17:01.870Z,100135.31
2019-05-25T12:18:06.316Z,100136.14
2019-05-25T12:19:14.711Z,100142.47